KFDK/FDK METAR and TAF weather

Enter ICAO airport designator
Station Type Date Time Source
KFDK METAR 2019/10/15 18:50 UTC NOAA

KFDK 151850Z VRB04KT 10SM SKC 21/04 A3009


Station Type Date Time Source
KFDK Decoded METAR 2019/10/15 18:50 UTC NOAA

Frederick, Frederick Municipal Airport, MD, United States (KFDK) 39-25-03N 077-22-28W
Oct 15, 2019 - 02:50 PM EDT / 2019.10.15 1850 UTC
Wind: Variable at 5 MPH (4 KT):0
Visibility: 10 mile(s):0
Sky conditions: clear
Temperature: 69 F (21 C)
Dew Point: 39 F (4 C)
Relative Humidity: 32%
Pressure (altimeter): 30.09 in. Hg (1018 hPa)
ob: KFDK 151850Z VRB04KT 10SM SKC 21/04 A3009
cycle: 19

Station Type Date Time Source
KFDK TAF UTC NOAA

Error!

Example: see airport list